Time;durP1;ratioP1;P1;durP2;ratioP2;P2;SDS_P1;SDS_P2;PMS_P1;PMS_P2;Temp;Humidity;BMP_temperature;BMP_pressure;BME280_temperature;BME280_humidity;BME280_pressure;Samples;Min_cycle;Max_cycle;Signal;HPM_P1;HPM_P2
2022/07/26 00:01:40;;;;;;;;;;;;;;;21.39;61.30;100677.22;5045409;28;20367;-55
2022/07/26 00:04:06;;;;;;;;;;;;;;;21.31;61.43;100696.75;5043585;28;19916;-54
2022/07/26 00:06:31;;;;;;;;;;;;;;;21.30;61.23;100697.75;5038662;28;19920;-55
2022/07/26 00:08:57;;;;;;;;;;;;;;;21.36;61.10;100723.03;5041571;28;20294;-55
2022/07/26 00:11:22;;;;;;;;;;;;;;;21.44;60.88;100715.06;5041159;28;19987;-54
2022/07/26 00:13:48;;;;;;;;;;;;;;;21.45;60.58;100706.03;5045183;28;20013;-55
2022/07/26 00:16:14;;;;;;;;;;;;;;;21.46;60.82;100717.56;5040965;28;19982;-55
2022/07/26 00:18:39;;;;;;;;;;;;;;;21.54;60.51;100724.78;5039314;28;20019;-56
2022/07/26 00:21:04;;;;;;;;;;;;;;;21.57;60.35;100716.44;5046447;28;20274;-56
2022/07/26 00:23:30;;;;;;;;;;;;;;;21.60;60.26;100730.38;5039078;28;20268;-57
2022/07/26 00:25:55;;;;;;;;;;;;;;;21.63;60.32;100739.91;5045811;28;20386;-54
2022/07/26 00:28:20;;;;;;;;;;;;;;;21.69;60.27;100743.81;5045196;28;19920;-58
2022/07/26 00:30:46;;;;;;;;;;;;;;;21.76;59.88;100772.44;5043805;28;19962;-56
2022/07/26 00:33:12;;;;;;;;;;;;;;;21.81;59.93;100773.78;5044767;28;19917;-59
2022/07/26 00:35:37;;;;;;;;;;;;;;;21.87;59.62;100768.63;5039121;28;20390;-56
2022/07/26 00:38:02;;;;;;;;;;;;;;;21.88;59.75;100772.97;5045645;28;19921;-57
2022/07/26 00:40:28;;;;;;;;;;;;;;;21.90;59.89;100757.59;5042301;28;19917;-58
2022/07/26 00:42:53;;;;;;;;;;;;;;;21.96;60.16;100748.06;5045488;28;19921;-61
2022/07/26 00:45:18;;;;;;;;;;;;;;;22.01;60.32;100752.91;5047287;28;19947;-58
2022/07/26 00:47:44;;;;;;;;;;;;;;;22.04;60.22;100745.41;5046910;28;19917;-56
2022/07/26 00:50:11;;;;;;;;;;;;;;;22.10;60.39;100741.22;5046815;28;19992;-56
2022/07/26 00:52:36;;;;;;;;;;;;;;;22.15;60.02;100741.59;5042821;28;19944;-55
2022/07/26 00:55:03;;;;;;;;;;;;;;;22.19;60.00;100750.13;5037124;28;19955;-57
2022/07/26 00:57:29;;;;;;;;;;;;;;;22.19;59.84;100755.47;5049653;28;20276;-57
2022/07/26 00:59:54;;;;;;;;;;;;;;;22.22;59.92;100755.16;5045974;28;20011;-56
2022/07/26 01:02:19;;;;;;;;;;;;;;;22.26;59.81;100747.63;5049189;28;19924;-53
2022/07/26 01:04:45;;;;;;;;;;;;;;;22.27;60.11;100752.81;5050984;28;19986;-57
2022/07/26 01:07:11;;;;;;;;;;;;;;;22.33;60.11;100746.78;5048688;28;20023;-56
2022/07/26 01:09:40;;;;;;;;;;;;;;;22.37;59.99;100758.88;5048577;28;19919;-60
2022/07/26 01:12:05;;;;;;;;;;;;;;;22.38;59.92;100759.69;5044606;28;19999;-61
2022/07/26 01:14:31;;;;;;;;;;;;;;;22.41;59.85;100762.06;5055809;28;20023;-59
2022/07/26 01:16:56;;;;;;;;;;;;;;;22.43;59.88;100751.19;5047993;28;19928;-56
2022/07/26 01:19:22;;;;;;;;;;;;;;;22.39;59.79;100745.28;5046762;28;19913;-55
2022/07/26 01:21:48;;;;;;;;;;;;;;;22.36;60.10;100751.81;5041435;28;19917;-57
2022/07/26 01:24:14;;;;;;;;;;;;;;;22.35;59.83;100749.28;5051777;28;19955;-57
2022/07/26 01:26:39;;;;;;;;;;;;;;;22.35;59.82;100742.09;5042136;28;19951;-58
2022/07/26 01:29:05;;;;;;;;;;;;;;;22.34;59.82;100740.44;5047791;28;20490;-56
2022/07/26 01:31:30;;;;;;;;;;;;;;;22.35;59.99;100733.22;5048179;28;19919;-56
2022/07/26 01:33:56;;;;;;;;;;;;;;;22.38;59.95;100719.47;5051100;28;20379;-56
2022/07/26 01:36:21;;;;;;;;;;;;;;;22.37;59.71;100715.13;5040292;28;20287;-56
2022/07/26 01:38:46;;;;;;;;;;;;;;;22.35;59.80;100714.44;5044762;28;20244;-54
2022/07/26 01:41:12;;;;;;;;;;;;;;;22.33;59.83;100719.13;5049518;28;20432;-56
2022/07/26 01:43:37;;;;;;;;;;;;;;;22.31;59.89;100715.81;5050094;28;20185;-57
2022/07/26 01:46:03;;;;;;;;;;;;;;;22.31;59.88;100730.03;5037290;28;19933;-54
2022/07/26 01:48:29;;;;;;;;;;;;;;;22.31;59.67;100737.25;5042337;28;20007;-55
2022/07/26 01:50:54;;;;;;;;;;;;;;;22.28;59.79;100745.63;5049632;28;20364;-57
2022/07/26 01:53:19;;;;;;;;;;;;;;;22.24;59.81;100747.78;5041138;28;19963;-57
2022/07/26 01:55:45;;;;;;;;;;;;;;;22.20;59.61;100747.28;5044997;28;20015;-55
2022/07/26 01:58:10;;;;;;;;;;;;;;;22.17;59.94;100744.91;5044373;28;19923;-57
2022/07/26 02:00:35;;;;;;;;;;;;;;;22.18;59.97;100753.81;5048868;28;19921;-61
2022/07/26 02:03:01;;;;;;;;;;;;;;;22.16;59.98;100748.59;5045935;28;19924;-59
2022/07/26 02:05:26;;;;;;;;;;;;;;;22.14;59.72;100741.72;5046993;28;20367;-56
2022/07/26 02:07:51;;;;;;;;;;;;;;;22.12;59.90;100733.88;5042653;28;19924;-57
2022/07/26 02:10:17;;;;;;;;;;;;;;;22.12;59.76;100744.59;5041639;28;19955;-56
2022/07/26 02:12:42;;;;;;;;;;;;;;;22.11;60.04;100756.31;5040635;28;19921;-60
2022/07/26 02:15:10;;;;;;;;;;;;;;;22.08;60.21;100762.00;5042440;28;20360;-59
2022/07/26 02:17:35;;;;;;;;;;;;;;;22.06;60.15;100766.66;5023624;28;20384;-59
2022/07/26 02:20:01;;;;;;;;;;;;;;;22.05;60.09;100765.84;5016075;28;19927;-56
2022/07/26 02:22:26;;;;;;;;;;;;;;;22.06;59.98;100777.38;5035728;28;19924;-57
2022/07/26 02:24:52;;;;;;;;;;;;;;;22.07;60.01;100779.91;5041710;28;19920;-54
2022/07/26 02:27:17;;;;;;;;;;;;;;;22.06;60.17;100769.34;5042247;28;19966;-58
2022/07/26 02:29:42;;;;;;;;;;;;;;;22.06;60.02;100772.03;5046260;28;19980;-56
2022/07/26 02:32:08;;;;;;;;;;;;;;;22.06;60.00;100777.38;5044611;28;20390;-56
2022/07/26 02:34:33;;;;;;;;;;;;;;;22.08;60.26;100770.03;5049071;28;19927;-57
2022/07/26 02:36:59;;;;;;;;;;;;;;;22.08;60.38;100765.50;5045130;28;19923;-57
2022/07/26 02:39:26;;;;;;;;;;;;;;;22.12;60.51;100763.34;5050029;28;19920;-57
2022/07/26 02:41:58;;;;;;;;;;;;;;;22.14;60.26;100764.03;5053262;28;19935;-60
2022/07/26 02:44:25;;;;;;;;;;;;;;;22.15;60.17;100768.38;5043102;28;19921;-59
2022/07/26 02:46:51;;;;;;;;;;;;;;;22.15;60.35;100765.69;5048187;28;20346;-60
2022/07/26 02:49:16;;;;;;;;;;;;;;;22.14;60.19;100780.09;5047958;28;19921;-57
2022/07/26 02:51:42;;;;;;;;;;;;;;;22.13;60.27;100781.09;5045544;28;20334;-60
2022/07/26 02:54:07;;;;;;;;;;;;;;;22.12;60.35;100773.22;5043529;28;20101;-60
2022/07/26 02:56:32;;;;;;;;;;;;;;;22.09;60.11;100777.06;5043494;28;19978;-57
2022/07/26 02:58:58;;;;;;;;;;;;;;;22.05;60.33;100789.09;5045345;28;20011;-57
2022/07/26 03:01:23;;;;;;;;;;;;;;;22.02;60.52;100784.91;5047637;28;19974;-56
2022/07/26 03:03:48;;;;;;;;;;;;;;;22.00;60.37;100786.09;5048697;28;19955;-59
2022/07/26 03:06:14;;;;;;;;;;;;;;;21.98;60.74;100788.91;5042728;28;19913;-58
2022/07/26 03:08:39;;;;;;;;;;;;;;;21.94;60.87;100774.16;5041912;28;19916;-58
2022/07/26 03:11:05;;;;;;;;;;;;;;;21.95;60.58;100780.38;5040951;28;19967;-57
2022/07/26 03:13:31;;;;;;;;;;;;;;;21.92;60.56;100787.72;5046634;28;19912;-55
2022/07/26 03:15:56;;;;;;;;;;;;;;;21.90;60.72;100773.66;5047419;28;20347;-56
2022/07/26 03:18:21;;;;;;;;;;;;;;;21.90;60.74;100778.19;5046686;28;19916;-57
2022/07/26 03:20:47;;;;;;;;;;;;;;;21.91;60.57;100786.06;5039318;28;19921;-58
2022/07/26 03:23:12;;;;;;;;;;;;;;;21.91;60.79;100785.22;5038681;28;19913;-57
2022/07/26 03:25:37;;;;;;;;;;;;;;;21.91;60.54;100787.91;5044197;28;20392;-58
2022/07/26 03:28:03;;;;;;;;;;;;;;;21.89;60.95;100787.22;5012543;28;20024;-57
2022/07/26 03:30:28;;;;;;;;;;;;;;;21.89;60.75;100782.69;5041825;28;19913;-57
2022/07/26 03:32:54;;;;;;;;;;;;;;;21.90;60.85;100784.38;5048141;28;19920;-59
2022/07/26 03:35:19;;;;;;;;;;;;;;;21.90;60.85;100784.38;5040613;28;19920;-57
2022/07/26 03:37:44;;;;;;;;;;;;;;;21.89;60.68;100782.69;5036173;28;20387;-55
2022/07/26 03:40:10;;;;;;;;;;;;;;;21.88;60.65;100770.28;5036297;28;20041;-55
2022/07/26 03:42:35;;;;;;;;;;;;;;;21.87;60.97;100771.28;5035030;28;20505;-54
2022/07/26 03:45:00;;;;;;;;;;;;;;;21.86;60.71;100782.19;5046310;28;20334;-55
2022/07/26 03:47:26;;;;;;;;;;;;;;;21.84;60.84;100785.03;5047734;28;19956;-55
2022/07/26 03:49:51;;;;;;;;;;;;;;;21.82;61.10;100779.00;5043417;28;19948;-57
2022/07/26 03:52:16;;;;;;;;;;;;;;;21.84;61.06;100768.97;5040109;28;20043;-58
2022/07/26 03:54:42;;;;;;;;;;;;;;;21.85;61.02;100767.13;5046037;28;19934;-58
2022/07/26 03:57:07;;;;;;;;;;;;;;;21.85;61.06;100767.13;5041231;28;19921;-59
2022/07/26 03:59:33;;;;;;;;;;;;;;;21.83;61.09;100771.78;5043205;28;20402;-55
2022/07/26 04:01:58;;;;;;;;;;;;;;;21.82;61.27;100776.31;5044276;28;20499;-54
2022/07/26 04:04:23;;;;;;;;;;;;;;;21.80;60.95;100778.31;5047916;28;19982;-55
2022/07/26 04:06:48;;;;;;;;;;;;;;;21.80;61.04;100780.13;5022186;28;19928;-57
2022/07/26 04:09:14;;;;;;;;;;;;;;;21.80;61.05;100782.81;5042773;28;19924;-55
2022/07/26 04:11:41;;;;;;;;;;;;;;;21.81;61.25;100780.00;5041403;28;20360;-55
2022/07/26 04:14:06;;;;;;;;;;;;;;;21.81;61.46;100774.63;5047421;28;19916;-55
2022/07/26 04:16:32;;;;;;;;;;;;;;;21.81;61.30;100780.00;5045680;28;19924;-55
2022/07/26 04:18:57;;;;;;;;;;;;;;;21.81;61.16;100777.31;5039739;28;20295;-55
2022/07/26 04:21:22;;;;;;;;;;;;;;;21.80;61.35;100778.31;5045805;28;19913;-55
2022/07/26 04:23:48;;;;;;;;;;;;;;;21.77;61.23;100775.94;5042363;28;19917;-55
2022/07/26 04:26:13;;;;;;;;;;;;;;;21.77;61.50;100773.28;5040480;28;19923;-55
2022/07/26 04:28:41;;;;;;;;;;;;;;;21.73;61.46;100771.91;5050720;28;20372;-54
2022/07/26 04:31:06;;;;;;;;;;;;;;;21.70;61.56;100772.25;5048384;28;19967;-54
2022/07/26 04:33:32;;;;;;;;;;;;;;;21.66;61.72;100770.91;5028848;28;20019;-55
2022/07/26 04:35:57;;;;;;;;;;;;;;;21.62;61.81;100773.88;5035167;28;19921;-55
2022/07/26 04:38:23;;;;;;;;;;;;;;;21.60;61.69;100778.56;5037535;28;19928;-54
2022/07/26 04:40:48;;;;;;;;;;;;;;;21.58;61.58;100774.34;5018366;28;19931;-55
2022/07/26 04:43:14;;;;;;;;;;;;;;;21.55;61.77;100774.66;5040669;28;20445;-56
2022/07/26 04:45:39;;;;;;;;;;;;;;;21.55;61.63;100780.88;5040918;28;19971;-56
2022/07/26 04:48:05;;;;;;;;;;;;;;;21.54;62.12;100789.03;5042252;28;20015;-55
2022/07/26 04:50:30;;;;;;;;;;;;;;;21.49;62.16;100784.16;5044644;28;20011;-55
2022/07/26 04:52:55;;;;;;;;;;;;;;;21.46;62.21;100781.81;5044145;28;20011;-57
2022/07/26 04:55:21;;;;;;;;;;;;;;;21.44;61.98;100778.44;5046246;28;19923;-55
2022/07/26 04:57:47;;;;;;;;;;;;;;;21.44;62.21;100783.81;5043271;28;19921;-57
2022/07/26 05:00:13;;;;;;;;;;;;;;;21.46;62.12;100787.16;5038892;28;19948;-57
2022/07/26 05:02:38;;;;;;;;;;;;;;;21.45;62.25;100786.34;5024720;28;20387;-60
2022/07/26 05:05:04;;;;;;;;;;;;;;;21.47;62.16;100794.19;5041842;28;19923;-57
2022/07/26 05:07:44;;;;;;;;;;;;;;;21.47;62.16;100791.50;5040843;28;20569;-54
2022/07/26 05:10:09;;;;;;;;;;;;;;;21.46;61.93;100795.19;5050890;28;19924;-55
2022/07/26 05:12:35;;;;;;;;;;;;;;;21.45;62.08;100793.50;5051482;28;19913;-55
2022/07/26 05:15:00;;;;;;;;;;;;;;;21.44;62.14;100794.50;5040277;28;19912;-56
2022/07/26 05:17:26;;;;;;;;;;;;;;;21.46;62.19;100795.19;5038165;28;19932;-55
2022/07/26 05:19:51;;;;;;;;;;;;;;;21.47;62.17;100788.84;5039788;28;19943;-54
2022/07/26 05:22:16;;;;;;;;;;;;;;;21.50;62.26;100790.34;5044506;28;20295;-55
2022/07/26 05:24:42;;;;;;;;;;;;;;;21.51;62.26;100797.38;5040807;28;19916;-58
2022/07/26 05:27:07;;;;;;;;;;;;;;;21.52;62.13;100797.25;5062889;22;19935;-52
2022/07/26 05:29:33;;;;;;;;;;;;;;;21.55;62.18;100810.31;5039122;28;19974;-52
2022/07/26 05:31:58;;;;;;;;;;;;;;;21.55;62.20;100807.63;5040670;28;19924;-51
2022/07/26 05:34:24;;;;;;;;;;;;;;;21.57;62.24;100805.63;5038335;28;19924;-51
2022/07/26 05:36:49;;;;;;;;;;;;;;;21.58;61.98;100814.50;5040601;28;20303;-51
2022/07/26 05:39:15;;;;;;;;;;;;;;;21.56;61.92;100811.97;5044083;28;19956;-50
2022/07/26 05:41:40;;;;;;;;;;;;;;;21.57;62.24;100813.66;5050202;28;19908;-50
2022/07/26 05:44:05;;;;;;;;;;;;;;;21.57;61.81;100821.69;5047142;28;19934;-52
2022/07/26 05:46:31;;;;;;;;;;;;;;;21.56;62.02;100819.16;5045086;28;19999;-52
2022/07/26 05:48:56;;;;;;;;;;;;;;;21.55;62.08;100823.69;5047771;28;19912;-50
2022/07/26 05:51:21;;;;;;;;;;;;;;;21.50;61.93;100820.66;5048112;28;20003;-51
2022/07/26 05:53:47;;;;;;;;;;;;;;;21.48;62.08;100822.66;5048170;28;19920;-50
2022/07/26 05:56:12;;;;;;;;;;;;;;;21.46;62.29;100822.81;5038457;28;20418;-52
2022/07/26 05:58:37;;;;;;;;;;;;;;;21.44;62.44;100822.13;5049018;28;19928;-51
2022/07/26 06:01:03;;;;;;;;;;;;;;;21.42;62.30;100826.78;5045611;28;19920;-51
2022/07/26 06:03:28;;;;;;;;;;;;;;;21.41;62.22;100834.97;5039631;28;19978;-51
2022/07/26 06:05:55;;;;;;;;;;;;;;;21.43;61.95;100835.66;5038084;28;19994;-50
2022/07/26 06:08:21;;;;;;;;;;;;;;;21.47;62.01;100840.56;5043927;28;20298;-52
2022/07/26 06:10:47;;;;;;;;;;;;;;;21.52;61.63;100844.56;5045043;28;19995;-50
2022/07/26 06:13:12;;;;;;;;;;;;;;;21.55;61.47;100844.25;5038385;28;19920;-51
2022/07/26 06:15:38;;;;;;;;;;;;;;;21.55;61.53;100849.63;5048133;28;19928;-49
2022/07/26 06:18:04;;;;;;;;;;;;;;;21.56;61.46;100849.44;5039905;28;20003;-49
2022/07/26 06:20:29;;;;;;;;;;;;;;;21.58;61.36;100847.44;5051033;28;19917;-50
2022/07/26 06:22:57;;;;;;;;;;;;;;;21.58;61.37;100858.16;5052634;28;19916;-49
2022/07/26 06:25:22;;;;;;;;;;;;;;;21.56;61.00;100849.44;5051590;28;20436;-51
2022/07/26 06:27:47;;;;;;;;;;;;;;;21.54;60.81;100846.13;5046491;28;19999;-52
2022/07/26 06:30:13;;;;;;;;;;;;;;;21.54;60.92;100848.78;5048183;28;19927;-48
2022/07/26 06:32:39;;;;;;;;;;;;;;;21.60;60.99;100850.84;5047763;28;20353;-52
2022/07/26 06:35:05;;;;;;;;;;;;;;;21.65;60.76;100855.72;5048095;28;20020;-52
2022/07/26 06:37:30;;;;;;;;;;;;;;;21.69;60.68;100843.69;5050169;28;21037;-50
2022/07/26 06:39:55;;;;;;;;;;;;;;;21.72;60.68;100851.44;5044809;28;20322;-51
2022/07/26 06:42:21;;;;;;;;;;;;;;;21.73;60.23;100857.59;5040662;28;19920;-52
2022/07/26 06:44:46;;;;;;;;;;;;;;;21.70;60.00;100853.41;5044247;28;20016;-51
2022/07/26 06:47:11;;;;;;;;;;;;;;;21.68;60.39;100859.94;5045406;28;19940;-51
2022/07/26 06:49:37;;;;;;;;;;;;;;;21.67;60.01;100859.09;5047633;28;20422;-53
2022/07/26 06:52:02;;;;;;;;;;;;;;;21.70;60.13;100852.59;5050208;28;20338;-54
2022/07/26 06:54:27;;;;;;;;;;;;;;;21.73;59.91;100853.09;5054789;28;20375;-54
2022/07/26 06:56:53;;;;;;;;;;;;;;;21.75;60.05;100855.63;5053030;28;19921;-53
2022/07/26 06:59:18;;;;;;;;;;;;;;;21.71;59.69;100864.94;5051904;28;19912;-55
2022/07/26 07:01:43;;;;;;;;;;;;;;;21.71;59.89;100865.81;5044065;28;19921;-55
2022/07/26 07:04:08;;;;;;;;;;;;;;;21.76;59.69;100871.53;5050748;28;19916;-54
2022/07/26 07:06:34;;;;;;;;;;;;;;;21.83;59.55;100877.09;5051567;28;19912;-52
2022/07/26 07:08:59;;;;;;;;;;;;;;;21.83;59.48;100873.56;5052246;28;19909;-52
2022/07/26 07:11:25;;;;;;;;;;;;;;;21.82;59.50;100874.56;5056305;28;19955;-51
2022/07/26 07:13:50;;;;;;;;;;;;;;;21.80;59.47;100880.09;5034501;28;20884;-52
2022/07/26 07:16:15;;;;;;;;;;;;;;;21.78;59.50;100882.91;5051740;28;19924;-52
2022/07/26 07:18:40;;;;;;;;;;;;;;;21.80;59.36;100877.41;5046933;28;20331;-53
2022/07/26 07:21:06;;;;;;;;;;;;;;;21.84;59.28;100886.81;5046337;28;20031;-52
2022/07/26 07:23:32;;;;;;;;;;;;;;;21.83;59.14;100884.28;5052928;28;20054;-51
2022/07/26 07:25:57;;;;;;;;;;;;;;;21.81;59.03;100881.78;5048640;28;19997;-52
2022/07/26 07:28:23;;;;;;;;;;;;;;;21.78;59.01;100877.53;5049959;28;19951;-50
2022/07/26 07:30:48;;;;;;;;;;;;;;;21.76;58.97;100884.06;5035196;28;20307;-49
2022/07/26 07:33:13;;;;;;;;;;;;;;;21.73;59.06;100873.66;5050585;28;19920;-51
2022/07/26 07:35:39;;;;;;;;;;;;;;;21.72;58.95;100877.34;5048280;28;19924;-49
2022/07/26 07:38:04;;;;;;;;;;;;;;;21.75;59.14;100877.03;5049209;28;20268;-50
2022/07/26 07:40:30;;;;;;;;;;;;;;;21.79;59.00;100881.09;5017719;28;19913;-50
2022/07/26 07:42:55;;;;;;;;;;;;;;;21.82;58.79;100888.81;5052448;28;19935;-51
2022/07/26 07:45:21;;;;;;;;;;;;;;;21.83;58.79;100879.78;5051663;28;19919;-51
2022/07/26 07:47:46;;;;;;;;;;;;;;;21.87;58.64;100882.97;5046119;28;19952;-52
2022/07/26 07:50:11;;;;;;;;;;;;;;;21.85;58.49;100879.59;5048013;28;19991;-50
2022/07/26 07:52:37;;;;;;;;;;;;;;;21.87;58.47;100886.47;5026732;28;20401;-53
2022/07/26 07:55:02;;;;;;;;;;;;;;;21.90;58.39;100891.50;5051732;28;19964;-51
2022/07/26 07:57:27;;;;;;;;;;;;;;;21.92;58.46;100886.00;5054840;28;19916;-51
2022/07/26 07:59:53;;;;;;;;;;;;;;;21.97;58.03;100880.16;5049787;28;19927;-52
2022/07/26 08:02:18;;;;;;;;;;;;;;;22.01;58.08;100901.13;5038750;28;19909;-50
2022/07/26 08:04:43;;;;;;;;;;;;;;;22.02;57.92;100897.44;5040203;28;19991;-50
2022/07/26 08:07:09;;;;;;;;;;;;;;;22.04;58.07;100881.19;5025571;28;19919;-50
2022/07/26 08:09:34;;;;;;;;;;;;;;;22.09;57.79;100886.91;5049450;28;19923;-53
2022/07/26 08:11:59;;;;;;;;;;;;;;;22.12;57.91;100886.59;5043725;28;19935;-52
2022/07/26 08:14:25;;;;;;;;;;;;;;;22.14;57.66;100892.66;5047654;28;21498;-52
2022/07/26 08:16:50;;;;;;;;;;;;;;;22.12;57.59;100891.97;5050771;28;19924;-52
2022/07/26 08:19:16;;;;;;;;;;;;;;;22.14;57.36;100898.00;5050994;28;19928;-51
2022/07/26 08:21:41;;;;;;;;;;;;;;;22.14;57.60;100889.97;5049476;28;19925;-52
2022/07/26 08:24:07;;;;;;;;;;;;;;;22.14;57.26;100887.28;5050097;28;20383;-51
2022/07/26 08:26:32;;;;;;;;;;;;;;;22.14;57.41;100887.28;5050680;28;19916;-52
2022/07/26 08:28:57;;;;;;;;;;;;;;;22.20;57.30;100891.16;5051946;28;20345;-54
2022/07/26 08:31:23;;;;;;;;;;;;;;;22.25;57.02;100894.16;5056424;28;20553;-50
2022/07/26 08:33:48;;;;;;;;;;;;;;;22.30;57.04;100902.56;5051440;28;19923;-50
2022/07/26 08:36:14;;;;;;;;;;;;;;;22.34;56.67;100903.09;5049092;28;19917;-50
2022/07/26 08:38:43;;;;;;;;;;;;;;;22.34;56.50;100911.13;5047179;28;20390;-52
2022/07/26 08:41:08;;;;;;;;;;;;;;;22.35;56.50;100899.41;5047322;28;19999;-51
2022/07/26 08:43:34;;;;;;;;;;;;;;;22.39;56.07;100906.13;5054239;28;20004;-52
2022/07/26 08:46:01;;;;;;;;;;;;;;;22.43;56.40;100907.53;5051752;28;19920;-53
2022/07/26 08:48:26;;;;;;;;;;;;;;;22.44;56.17;100901.16;5031891;28;19920;-51
2022/07/26 08:50:52;;;;;;;;;;;;;;;22.49;56.15;100906.03;5045245;28;19962;-51
2022/07/26 08:53:18;;;;;;;;;;;;;;;22.53;55.92;100913.56;5059024;28;19908;-52
2022/07/26 08:55:43;;;;;;;;;;;;;;;22.51;55.70;100910.22;5060760;28;20287;-55
2022/07/26 08:58:08;;;;;;;;;;;;;;;22.48;55.63;100913.22;5041948;28;19959;-52
2022/07/26 09:00:34;;;;;;;;;;;;;;;22.44;55.78;100909.19;5049464;28;19927;-51
2022/07/26 09:03:00;;;;;;;;;;;;;;;22.46;55.49;100912.53;5050735;28;19974;-52
2022/07/26 09:05:27;;;;;;;;;;;;;;;22.48;55.44;100910.53;5047381;28;19917;-52
2022/07/26 09:07:52;;;;;;;;;;;;;;;22.55;55.47;100912.56;5051291;28;19951;-53
2022/07/26 09:10:18;;;;;;;;;;;;;;;22.59;55.32;100908.56;5051019;28;19955;-52
2022/07/26 09:12:43;;;;;;;;;;;;;;;22.64;54.95;100912.44;5032798;28;20334;-53
2022/07/26 09:15:19;;;;;;;;;;;;;;;22.69;54.98;100912.75;5047560;28;20398;-52
2022/07/26 09:17:47;;;;;;;;;;;;;;;22.74;54.70;100923.03;5048729;28;19917;-51
2022/07/26 09:20:17;;;;;;;;;;;;;;;22.78;54.57;100915.47;5044368;28;19912;-52
2022/07/26 09:23:01;;;;;;;;;;;;;;;22.87;54.63;100919.00;5049130;28;20000;-51
2022/07/26 09:25:27;;;;;;;;;;;;;;;22.90;54.38;100924.06;5049584;28;19920;-52
2022/07/26 09:27:53;;;;;;;;;;;;;;;22.91;54.04;100920.38;5058240;28;19912;-52
2022/07/26 09:30:18;;;;;;;;;;;;;;;22.90;53.76;100929.41;5052052;28;19921;-52
2022/07/26 09:33:06;;;;;;;;;;;;;;;22.90;53.99;100934.78;5052581;28;19939;-53
2022/07/26 09:35:36;;;;;;;;;;;;;;;22.88;53.91;100920.69;5052929;28;19924;-52
2022/07/26 09:38:10;;;;;;;;;;;;;;;22.91;53.85;100920.38;5054758;28;19944;-54
2022/07/26 09:40:36;;;;;;;;;;;;;;;22.94;53.89;100926.25;5053582;28;19920;-52
2022/07/26 09:43:02;;;;;;;;;;;;;;;22.96;53.66;100923.38;5047569;28;19917;-51
2022/07/26 09:45:29;;;;;;;;;;;;;;;22.97;53.51;100930.41;5058025;28;19978;-54
2022/07/26 09:47:55;;;;;;;;;;;;;;;22.96;53.38;100923.38;5056454;28;20525;-53
2022/07/26 09:50:21;;;;;;;;;;;;;;;22.97;53.28;100920.53;5052301;28;19913;-51
2022/07/26 09:53:01;;;;;;;;;;;;;;;23.00;52.84;100922.03;5048426;28;20455;-51
2022/07/26 09:55:27;;;;;;;;;;;;;;;23.05;53.20;100918.84;5057128;28;20284;-52
2022/07/26 09:57:52;;;;;;;;;;;;;;;23.10;52.73;100924.56;5056314;28;19909;-52
2022/07/26 10:00:18;;;;;;;;;;;;;;;23.13;52.76;100919.69;5051174;28;19947;-54
2022/07/26 10:02:43;;;;;;;;;;;;;;;23.18;52.46;100927.25;5054038;28;19935;-52
2022/07/26 10:05:09;;;;;;;;;;;;;;;23.24;52.31;100920.41;5037266;28;19912;-51
2022/07/26 10:07:35;;;;;;;;;;;;;;;23.26;52.19;100921.06;5047776;28;19932;-51
2022/07/26 10:10:06;;;;;;;;;;;;;;;23.27;52.26;100920.06;5055460;28;19919;-53
2022/07/26 10:12:31;;;;;;;;;;;;;;;23.31;52.33;100920.56;5049838;28;19960;-52
2022/07/26 10:14:57;;;;;;;;;;;;;;;23.35;52.21;100920.09;5032794;28;19963;-53
2022/07/26 10:17:25;;;;;;;;;;;;;;;23.40;52.16;100920.41;5029332;28;19925;-52
2022/07/26 10:19:54;;;;;;;;;;;;;;;23.46;51.93;100912.69;5052405;28;19966;-55
2022/07/26 10:22:26;;;;;;;;;;;;;;;23.49;51.80;100920.41;5043801;28;20368;-54
2022/07/26 10:24:52;;;;;;;;;;;;;;;23.51;51.75;100929.97;5049035;28;19928;-52
2022/07/26 10:27:36;;;;;;;;;;;;;;;23.55;51.26;100911.66;5050269;28;20345;-53
2022/07/26 10:30:22;;;;;;;;;;;;;;;23.59;51.09;100907.63;5051573;28;19967;-53
2022/07/26 10:32:51;;;;;;;;;;;;;;;23.65;51.12;100900.72;5051184;28;19915;-54
2022/07/26 10:35:40;;;;;;;;;;;;;;;23.70;50.33;100909.94;5048124;28;20007;-52
2022/07/26 10:38:08;;;;;;;;;;;;;;;23.71;50.41;100927.75;5049566;28;19917;-53
2022/07/26 10:40:35;;;;;;;;;;;;;;;23.75;49.81;100917.47;5051292;28;19958;-55
2022/07/26 10:43:10;;;;;;;;;;;;;;;23.79;49.77;100912.63;5051931;28;19913;-54
2022/07/26 10:45:36;;;;;;;;;;;;;;;23.87;49.75;100909.91;5050342;28;19912;-52
2022/07/26 10:48:18;;;;;;;;;;;;;;;23.92;49.46;100906.69;5047897;28;19920;-52
2022/07/26 10:50:44;;;;;;;;;;;;;;;23.97;49.45;100915.13;5042208;28;20034;-49
2022/07/26 10:53:15;;;;;;;;;;;;;;;23.96;49.16;100914.28;5049375;28;19966;-51
2022/07/26 10:55:48;;;;;;;;;;;;;;;23.90;49.06;100914.94;5045113;28;19917;-49
2022/07/26 10:58:13;;;;;;;;;;;;;;;23.84;48.92;100931.75;5047646;28;20016;-51
2022/07/26 11:00:39;;;;;;;;;;;;;;;23.77;48.96;100920.00;5054011;28;20031;-50
2022/07/26 11:03:04;;;;;;;;;;;;;;;23.71;49.30;100921.53;5044917;28;19995;-50
2022/07/26 11:05:30;;;;;;;;;;;;;;;23.71;49.22;100921.53;5050721;28;19913;-51
2022/07/26 11:08:03;;;;;;;;;;;;;;;23.75;49.50;100928.22;5044205;28;20003;-50
2022/07/26 11:10:36;;;;;;;;;;;;;;;23.77;49.36;100928.06;5050074;28;19916;-50
2022/07/26 11:13:04;;;;;;;;;;;;;;;23.79;49.43;100943.00;5056013;28;19992;-50
2022/07/26 11:15:29;;;;;;;;;;;;;;;23.83;49.44;100935.44;5046318;28;19912;-50
2022/07/26 11:18:07;;;;;;;;;;;;;;;23.87;49.52;100926.03;5046422;28;19916;-51
2022/07/26 11:20:32;;;;;;;;;;;;;;;23.93;49.36;100930.72;5050130;28;19912;-51
2022/07/26 11:22:57;;;;;;;;;;;;;;;23.97;49.34;100932.09;5049231;28;19923;-50
2022/07/26 11:25:23;;;;;;;;;;;;;;;24.01;49.53;100936.09;5047580;28;20283;-50
2022/07/26 11:28:17;;;;;;;;;;;;;;;24.08;49.32;100933.56;5051306;28;19913;-51
2022/07/26 11:30:54;;;;;;;;;;;;;;;24.15;49.30;100939.06;5050981;22;20280;-53
2022/07/26 11:33:19;;;;;;;;;;;;;;;24.20;48.95;100936.72;5045388;28;19986;-54
2022/07/26 11:35:51;;;;;;;;;;;;;;;24.23;48.77;100927.44;5044645;28;20025;-55
2022/07/26 11:38:16;;;;;;;;;;;;;;;24.23;48.69;100948.94;5047868;28;20310;-54
2022/07/26 11:40:45;;;;;;;;;;;;;;;24.19;48.33;100940.41;5035038;28;20379;-54
2022/07/26 11:43:11;;;;;;;;;;;;;;;24.15;48.13;100939.94;5034592;28;19909;-54
2022/07/26 11:45:36;;;;;;;;;;;;;;;24.12;48.39;100936.75;5036241;28;19934;-54
2022/07/26 11:48:03;;;;;;;;;;;;;;;24.10;48.51;100931.53;5032530;28;19913;-54
2022/07/26 11:50:28;;;;;;;;;;;;;;;24.09;48.60;100935.22;5031345;28;19955;-54
2022/07/26 11:52:53;;;;;;;;;;;;;;;24.08;48.68;100938.09;5027963;28;19917;-54
2022/07/26 11:55:26;;;;;;;;;;;;;;;24.04;48.73;100938.44;5030817;28;20379;-54
2022/07/26 11:57:51;;;;;;;;;;;;;;;24.00;48.54;100944.34;5033024;28;19949;-53
2022/07/26 12:00:17;;;;;;;;;;;;;;;23.96;48.67;100959.97;5032026;28;19964;-54
2022/07/26 12:02:43;;;;;;;;;;;;;;;23.87;48.96;100952.91;5030503;28;19916;-53
2022/07/26 12:05:13;;;;;;;;;;;;;;;23.77;49.30;100949.56;5024382;28;19967;-55
2022/07/26 12:07:50;;;;;;;;;;;;;;;23.72;49.60;100958.16;5031634;28;19925;-54
2022/07/26 12:10:16;;;;;;;;;;;;;;;23.54;49.94;100969.91;5028700;28;19909;-54
2022/07/26 12:12:41;;;;;;;;;;;;;;;23.34;50.36;100974.78;5030589;28;19917;-54
2022/07/26 12:15:07;;;;;;;;;;;;;;;23.18;50.86;100980.09;5035122;28;19924;-54
2022/07/26 12:17:33;;;;;;;;;;;;;;;23.03;51.33;100983.44;5033008;28;19916;-54
2022/07/26 12:20:17;;;;;;;;;;;;;;;22.88;51.48;100985.09;5022810;28;20292;-54
2022/07/26 12:22:52;;;;;;;;;;;;;;;22.67;52.40;101002.44;5029544;28;19948;-53
2022/07/26 12:25:27;;;;;;;;;;;;;;;22.49;52.94;100989.13;5029329;28;19913;-53
2022/07/26 12:27:53;;;;;;;;;;;;;;;22.34;53.50;100997.75;5018906;28;20035;-53
2022/07/26 12:30:19;;;;;;;;;;;;;;;22.23;53.78;100995.38;5027010;28;19917;-55
2022/07/26 12:32:44;;;;;;;;;;;;;;;22.13;54.02;100990.13;5029164;28;19913;-53